KI19

Mon, Dec 10, 2018 - 06:35 EST
Clear, Mist
TEMP
21°F
FEELS LIKE
21°F
HUMIDITY
97%
DEW POINT
20°F
WIND  
0
MPH
BAROMETER
30.24 IN

METAR KI19 101135Z AUTO 00000KT 5SM BR CLR M06/M07 A3024 RMK AO2 T10621066

ADDS     |     NWS

MoDaWx     |     KI19     |     KFFO
Free Web Hosting